sensor_id;sensor_type;location;lat;lon;timestamp;pressure;altitude;pressure_sealevel;temperature;humidity
62548;BME280;48602;45.192;5.722;2022-12-20T00:00:52;99998.66;;;13.98;53.03
62548;BME280;48602;45.192;5.722;2022-12-20T00:03:18;99997.56;;;14.04;52.49
62548;BME280;48602;45.192;5.722;2022-12-20T00:05:45;100002.66;;;14.09;52.66
62548;BME280;48602;45.192;5.722;2022-12-20T00:08:10;100007.03;;;14.10;52.71
62548;BME280;48602;45.192;5.722;2022-12-20T00:10:41;99999.00;;;14.11;52.61
62548;BME280;48602;45.192;5.722;2022-12-20T00:13:08;99996.25;;;14.14;51.21
62548;BME280;48602;45.192;5.722;2022-12-20T00:15:34;99982.75;;;14.20;52.38
62548;BME280;48602;45.192;5.722;2022-12-20T00:18:00;99979.97;;;14.23;51.84
62548;BME280;48602;45.192;5.722;2022-12-20T00:20:26;99986.91;;;14.26;51.68
62548;BME280;48602;45.192;5.722;2022-12-20T00:22:52;99979.75;;;14.28;51.03
62548;BME280;48602;45.192;5.722;2022-12-20T00:25:18;99977.03;;;14.29;51.62
62548;BME280;48602;45.192;5.722;2022-12-20T00:27:45;99980.63;;;14.28;52.20
62548;BME280;48602;45.192;5.722;2022-12-20T00:30:11;99981.53;;;14.27;51.58
62548;BME280;48602;45.192;5.722;2022-12-20T00:32:37;99978.09;;;14.25;52.03
62548;BME280;48602;45.192;5.722;2022-12-20T00:35:03;99972.00;;;14.23;51.57
62548;BME280;48602;45.192;5.722;2022-12-20T00:37:28;99968.50;;;14.23;51.81
62548;BME280;48602;45.192;5.722;2022-12-20T00:39:54;99970.28;;;14.22;52.22
62548;BME280;48602;45.192;5.722;2022-12-20T00:42:19;99961.66;;;14.17;52.10
62548;BME280;48602;45.192;5.722;2022-12-20T00:44:45;99965.28;;;14.15;52.17
62548;BME280;48602;45.192;5.722;2022-12-20T00:47:10;99962.81;;;14.10;51.99
62548;BME280;48602;45.192;5.722;2022-12-20T00:49:36;99961.22;;;14.06;51.81
62548;BME280;48602;45.192;5.722;2022-12-20T00:52:01;99975.66;;;13.99;52.02
62548;BME280;48602;45.192;5.722;2022-12-20T00:54:26;99974.41;;;13.86;51.43
62548;BME280;48602;45.192;5.722;2022-12-20T00:56:52;99959.13;;;13.71;51.65
62548;BME280;48602;45.192;5.722;2022-12-20T00:59:19;99961.53;;;13.55;51.60
62548;BME280;48602;45.192;5.722;2022-12-20T01:01:45;99970.78;;;13.43;52.13
62548;BME280;48602;45.192;5.722;2022-12-20T01:04:11;99969.53;;;13.30;52.07
62548;BME280;48602;45.192;5.722;2022-12-20T01:06:37;99967.34;;;13.18;52.30
62548;BME280;48602;45.192;5.722;2022-12-20T01:09:02;99965.91;;;13.08;52.15
62548;BME280;48602;45.192;5.722;2022-12-20T01:11:34;99969.94;;;12.94;52.24
62548;BME280;48602;45.192;5.722;2022-12-20T01:14:04;99963.69;;;12.72;52.20
62548;BME280;48602;45.192;5.722;2022-12-20T01:16:39;99965.78;;;12.38;52.13
62548;BME280;48602;45.192;5.722;2022-12-20T01:19:06;99965.16;;;12.03;52.44
62548;BME280;48602;45.192;5.722;2022-12-20T01:21:32;99984.81;;;11.65;53.10
62548;BME280;48602;45.192;5.722;2022-12-20T01:23:57;99976.97;;;11.34;53.13
62548;BME280;48602;45.192;5.722;2022-12-20T01:26:25;100005.09;;;11.04;53.72
62548;BME280;48602;45.192;5.722;2022-12-20T01:28:54;99991.78;;;10.76;54.19
62548;BME280;48602;45.192;5.722;2022-12-20T01:31:20;99992.53;;;10.49;54.75
62548;BME280;48602;45.192;5.722;2022-12-20T01:33:49;99996.59;;;10.27;55.09
62548;BME280;48602;45.192;5.722;2022-12-20T01:36:18;99976.94;;;10.04;55.57
62548;BME280;48602;45.192;5.722;2022-12-20T01:38:44;99990.53;;;9.86;55.66
62548;BME280;48602;45.192;5.722;2022-12-20T01:41:17;99991.00;;;9.66;56.48
62548;BME280;48602;45.192;5.722;2022-12-20T01:46:12;99981.97;;;9.38;57.00
62548;BME280;48602;45.192;5.722;2022-12-20T01:48:38;100001.53;;;9.25;57.20
62548;BME280;48602;45.192;5.722;2022-12-20T01:51:04;99981.59;;;9.13;58.02
62548;BME280;48602;45.192;5.722;2022-12-20T01:53:30;100009.88;;;9.03;57.90
62548;BME280;48602;45.192;5.722;2022-12-20T01:55:59;99982.91;;;8.92;58.23
62548;BME280;48602;45.192;5.722;2022-12-20T01:58:27;100003.28;;;8.81;58.37
62548;BME280;48602;45.192;5.722;2022-12-20T02:00:53;99994.63;;;8.74;58.35
62548;BME280;48602;45.192;5.722;2022-12-20T02:03:18;99998.25;;;8.69;58.82
62548;BME280;48602;45.192;5.722;2022-12-20T02:05:45;99988.72;;;8.63;58.98
62548;BME280;48602;45.192;5.722;2022-12-20T02:08:12;100000.16;;;8.61;59.18
62548;BME280;48602;45.192;5.722;2022-12-20T02:16:17;100003.69;;;8.58;59.73
62548;BME280;48602;45.192;5.722;2022-12-20T02:19:22;100007.28;;;8.54;60.03
62548;BME280;48602;45.192;5.722;2022-12-20T02:22:11;99965.25;;;8.54;60.19
62548;BME280;48602;45.192;5.722;2022-12-20T02:30:18;99977.84;;;8.82;60.37
62548;BME280;48602;45.192;5.722;2022-12-20T02:32:51;99980.19;;;8.97;60.10
62548;BME280;48602;45.192;5.722;2022-12-20T02:35:23;99938.91;;;9.00;59.43
62548;BME280;48602;45.192;5.722;2022-12-20T02:37:54;99941.59;;;8.97;59.47
62548;BME280;48602;45.192;5.722;2022-12-20T02:40:27;99964.41;;;8.97;59.28
62548;BME280;48602;45.192;5.722;2022-12-20T02:42:58;99972.31;;;8.95;59.35
62548;BME280;48602;45.192;5.722;2022-12-20T02:45:30;99949.56;;;8.93;59.41
62548;BME280;48602;45.192;5.722;2022-12-20T02:48:07;99953.09;;;8.92;59.71
62548;BME280;48602;45.192;5.722;2022-12-20T02:50:44;99955.69;;;8.93;59.74
62548;BME280;48602;45.192;5.722;2022-12-20T02:53:11;99969.69;;;8.95;59.67
62548;BME280;48602;45.192;5.722;2022-12-20T02:55:45;99970.56;;;8.96;59.56
62548;BME280;48602;45.192;5.722;2022-12-20T02:58:33;99945.06;;;8.99;59.92
62548;BME280;48602;45.192;5.722;2022-12-20T03:01:05;99951.03;;;9.07;59.92
62548;BME280;48602;45.192;5.722;2022-12-20T03:03:33;99948.28;;;9.14;59.72
62548;BME280;48602;45.192;5.722;2022-12-20T03:06:00;99941.16;;;9.19;59.50
62548;BME280;48602;45.192;5.722;2022-12-20T03:08:26;99960.34;;;9.22;59.62
62548;BME280;48602;45.192;5.722;2022-12-20T03:10:53;99953.28;;;9.26;59.64
62548;BME280;48602;45.192;5.722;2022-12-20T03:13:19;99954.09;;;9.28;59.79
62548;BME280;48602;45.192;5.722;2022-12-20T03:15:44;99941.75;;;9.31;59.51
62548;BME280;48602;45.192;5.722;2022-12-20T03:18:10;99946.19;;;9.29;59.42
62548;BME280;48602;45.192;5.722;2022-12-20T03:20:35;99936.59;;;9.27;59.11
62548;BME280;48602;45.192;5.722;2022-12-20T03:23:01;99933.19;;;9.22;59.09
62548;BME280;48602;45.192;5.722;2022-12-20T03:25:27;99941.22;;;9.16;59.59
62548;BME280;48602;45.192;5.722;2022-12-20T03:27:52;99929.06;;;9.10;59.06
62548;BME280;48602;45.192;5.722;2022-12-20T03:30:18;99926.47;;;9.07;59.50
62548;BME280;48602;45.192;5.722;2022-12-20T03:32:43;99932.63;;;9.06;59.67
62548;BME280;48602;45.192;5.722;2022-12-20T03:35:09;99936.13;;;9.06;60.08
62548;BME280;48602;45.192;5.722;2022-12-20T03:37:34;99920.25;;;9.11;60.06
62548;BME280;48602;45.192;5.722;2022-12-20T03:40:00;99923.63;;;9.19;59.86
62548;BME280;48602;45.192;5.722;2022-12-20T03:42:26;99935.81;;;9.22;59.92
62548;BME280;48602;45.192;5.722;2022-12-20T03:44:51;99942.75;;;9.26;59.90
62548;BME280;48602;45.192;5.722;2022-12-20T03:47:16;99927.00;;;9.24;59.37
62548;BME280;48602;45.192;5.722;2022-12-20T03:49:42;99941.16;;;9.19;59.40
62548;BME280;48602;45.192;5.722;2022-12-20T03:52:11;99922.00;;;9.12;59.33
62548;BME280;48602;45.192;5.722;2022-12-20T03:54:37;99920.38;;;9.05;59.44
62548;BME280;48602;45.192;5.722;2022-12-20T03:57:02;99906.50;;;9.00;59.36
62548;BME280;48602;45.192;5.722;2022-12-20T03:59:28;99910.06;;;8.96;59.84
62548;BME280;48602;45.192;5.722;2022-12-20T04:01:53;99908.31;;;8.96;60.07
62548;BME280;48602;45.192;5.722;2022-12-20T04:04:18;99907.38;;;8.99;60.54
62548;BME280;48602;45.192;5.722;2022-12-20T04:06:44;99912.59;;;9.02;60.53
62548;BME280;48602;45.192;5.722;2022-12-20T04:09:09;99908.00;;;9.10;60.26
62548;BME280;48602;45.192;5.722;2022-12-20T04:11:34;99896.56;;;9.13;60.03
62548;BME280;48602;45.192;5.722;2022-12-20T04:14:00;99898.25;;;9.17;60.12
62548;BME280;48602;45.192;5.722;2022-12-20T04:16:27;99893.81;;;9.19;60.26
62548;BME280;48602;45.192;5.722;2022-12-20T04:18:53;99912.09;;;9.23;60.16
62548;BME280;48602;45.192;5.722;2022-12-20T04:21:24;99899.84;;;9.22;59.90
62548;BME280;48602;45.192;5.722;2022-12-20T04:23:49;99896.47;;;9.17;59.54
62548;BME280;48602;45.192;5.722;2022-12-20T04:26:15;99906.25;;;9.10;59.73
62548;BME280;48602;45.192;5.722;2022-12-20T04:28:41;99905.53;;;9.04;60.17
62548;BME280;48602;45.192;5.722;2022-12-20T04:31:06;99902.91;;;9.04;60.34
62548;BME280;48602;45.192;5.722;2022-12-20T04:33:32;99900.19;;;9.07;60.16
62548;BME280;48602;45.192;5.722;2022-12-20T04:35:57;99914.22;;;9.06;60.24
62548;BME280;48602;45.192;5.722;2022-12-20T04:38:23;99908.09;;;9.05;60.77
62548;BME280;48602;45.192;5.722;2022-12-20T04:40:49;99898.50;;;9.04;60.40
62548;BME280;48602;45.192;5.722;2022-12-20T04:43:16;99900.28;;;9.04;60.25
62548;BME280;48602;45.192;5.722;2022-12-20T04:45:42;99903.78;;;9.04;60.31
62548;BME280;48602;45.192;5.722;2022-12-20T04:48:08;99912.56;;;9.03;60.18
62548;BME280;48602;45.192;5.722;2022-12-20T04:50:34;99916.09;;;9.02;60.52
62548;BME280;48602;45.192;5.722;2022-12-20T04:52:59;99917.72;;;9.06;60.87
62548;BME280;48602;45.192;5.722;2022-12-20T04:55:43;99920.34;;;9.06;60.44
62548;BME280;48602;45.192;5.722;2022-12-20T04:58:09;99912.47;;;9.06;60.36
62548;BME280;48602;45.192;5.722;2022-12-20T05:00:34;99914.28;;;9.04;60.32
62548;BME280;48602;45.192;5.722;2022-12-20T05:02:59;99903.03;;;8.98;60.16
62548;BME280;48602;45.192;5.722;2022-12-20T05:05:25;99918.00;;;8.94;60.35
62548;BME280;48602;45.192;5.722;2022-12-20T05:07:51;99905.75;;;8.93;60.74
62548;BME280;48602;45.192;5.722;2022-12-20T05:10:17;99917.13;;;8.94;60.42
62548;BME280;48602;45.192;5.722;2022-12-20T05:12:43;99911.88;;;8.94;60.60
62548;BME280;48602;45.192;5.722;2022-12-20T05:15:10;99915.38;;;8.94;60.76
62548;BME280;48602;45.192;5.722;2022-12-20T05:17:36;99912.69;;;8.97;61.08
62548;BME280;48602;45.192;5.722;2022-12-20T05:20:01;99917.00;;;9.00;61.01
62548;BME280;48602;45.192;5.722;2022-12-20T05:22:27;99912.50;;;9.05;60.87
62548;BME280;48602;45.192;5.722;2022-12-20T05:25:11;99908.91;;;9.09;60.57
62548;BME280;48602;45.192;5.722;2022-12-20T05:27:56;99908.91;;;9.09;60.61
62548;BME280;48602;45.192;5.722;2022-12-20T05:30:21;99894.03;;;9.08;60.54
62548;BME280;48602;45.192;5.722;2022-12-20T05:32:47;99895.00;;;9.04;60.19
62548;BME280;48602;45.192;5.722;2022-12-20T05:35:13;99896.88;;;8.99;60.53
62548;BME280;48602;45.192;5.722;2022-12-20T05:37:39;99901.28;;;8.97;60.39
62548;BME280;48602;45.192;5.722;2022-12-20T05:40:05;99901.34;;;8.94;60.54
62548;BME280;48602;45.192;5.722;2022-12-20T05:42:30;99911.94;;;8.91;60.50
62548;BME280;48602;45.192;5.722;2022-12-20T05:44:56;99912.91;;;8.87;60.47
62548;BME280;48602;45.192;5.722;2022-12-20T05:47:22;99912.09;;;8.83;60.54
62548;BME280;48602;45.192;5.722;2022-12-20T05:49:47;99899.03;;;8.79;60.67
62548;BME280;48602;45.192;5.722;2022-12-20T05:52:13;99891.22;;;8.75;60.47
62548;BME280;48602;45.192;5.722;2022-12-20T05:54:38;99890.41;;;8.72;60.61
62548;BME280;48602;45.192;5.722;2022-12-20T05:57:04;99895.81;;;8.66;60.75
62548;BME280;48602;45.192;5.722;2022-12-20T05:59:29;99893.25;;;8.61;60.97
62548;BME280;48602;45.192;5.722;2022-12-20T06:01:54;99888.94;;;8.57;60.78
62548;BME280;48602;45.192;5.722;2022-12-20T06:04:20;99885.53;;;8.54;60.98
62548;BME280;48602;45.192;5.722;2022-12-20T06:06:45;99876.84;;;8.50;61.12
62548;BME280;48602;45.192;5.722;2022-12-20T06:09:11;99865.50;;;8.48;61.19
62548;BME280;48602;45.192;5.722;2022-12-20T06:11:37;99883.03;;;8.46;61.37
62548;BME280;48602;45.192;5.722;2022-12-20T06:14:03;99863.75;;;8.47;61.49
62548;BME280;48602;45.192;5.722;2022-12-20T06:16:28;99865.50;;;8.48;61.18
62548;BME280;48602;45.192;5.722;2022-12-20T06:18:54;99869.03;;;8.46;61.48
62548;BME280;48602;45.192;5.722;2022-12-20T06:21:19;99863.78;;;8.46;61.01
62548;BME280;48602;45.192;5.722;2022-12-20T06:23:45;99860.28;;;8.45;61.17
62548;BME280;48602;45.192;5.722;2022-12-20T06:26:10;99854.16;;;8.45;61.25
62548;BME280;48602;45.192;5.722;2022-12-20T06:28:36;99845.44;;;8.43;61.28
62548;BME280;48602;45.192;5.722;2022-12-20T06:31:08;99848.06;;;8.43;61.61
62548;BME280;48602;45.192;5.722;2022-12-20T06:33:33;99853.31;;;8.43;61.61
62548;BME280;48602;45.192;5.722;2022-12-20T06:35:59;99859.38;;;8.48;61.66
62548;BME280;48602;45.192;5.722;2022-12-20T06:38:24;99840.81;;;8.55;61.66
62548;BME280;48602;45.192;5.722;2022-12-20T06:40:50;99842.47;;;8.59;61.54
62548;BME280;48602;45.192;5.722;2022-12-20T06:43:15;99850.31;;;8.62;61.45
62548;BME280;48602;45.192;5.722;2022-12-20T06:45:41;99854.69;;;8.62;61.08
62548;BME280;48602;45.192;5.722;2022-12-20T06:48:07;99844.28;;;8.57;61.08
62548;BME280;48602;45.192;5.722;2022-12-20T06:50:32;99840.00;;;8.53;61.28
62548;BME280;48602;45.192;5.722;2022-12-20T06:52:57;99842.69;;;8.50;61.22
62548;BME280;48602;45.192;5.722;2022-12-20T06:55:23;99841.88;;;8.47;61.10
62548;BME280;48602;45.192;5.722;2022-12-20T06:57:48;99847.19;;;8.44;61.27
62548;BME280;48602;45.192;5.722;2022-12-20T07:00:14;99832.38;;;8.39;61.64
62548;BME280;48602;45.192;5.722;2022-12-20T07:02:40;99848.16;;;8.38;61.52
62548;BME280;48602;45.192;5.722;2022-12-20T07:05:06;99842.97;;;8.36;61.78
62548;BME280;48602;45.192;5.722;2022-12-20T07:07:32;99855.13;;;8.39;61.79
62548;BME280;48602;45.192;5.722;2022-12-20T07:09:57;99873.44;;;8.44;62.11
62548;BME280;48602;45.192;5.722;2022-12-20T07:12:23;99872.59;;;8.43;61.90
62548;BME280;48602;45.192;5.722;2022-12-20T07:14:48;99871.72;;;8.43;61.39
62548;BME280;48602;45.192;5.722;2022-12-20T07:17:14;99882.31;;;8.38;61.35
62548;BME280;48602;45.192;5.722;2022-12-20T07:19:39;99886.75;;;8.36;61.54
62548;BME280;48602;45.192;5.722;2022-12-20T07:22:06;99879.75;;;8.35;61.46
62548;BME280;48602;45.192;5.722;2022-12-20T07:24:33;99893.78;;;8.34;61.49
62548;BME280;48602;45.192;5.722;2022-12-20T07:26:59;99880.66;;;8.34;61.53
62548;BME280;48602;45.192;5.722;2022-12-20T07:29:24;99876.31;;;8.33;61.55
62548;BME280;48602;45.192;5.722;2022-12-20T07:31:50;99878.06;;;8.32;61.77
62548;BME280;48602;45.192;5.722;2022-12-20T07:34:16;99883.28;;;8.34;61.89
62548;BME280;48602;45.192;5.722;2022-12-20T07:36:41;99873.59;;;8.37;61.85
62548;BME280;48602;45.192;5.722;2022-12-20T07:39:07;99874.41;;;8.39;61.81
62548;BME280;48602;45.192;5.722;2022-12-20T07:41:33;99876.97;;;8.43;61.85
62548;BME280;48602;45.192;5.722;2022-12-20T07:43:59;99887.41;;;8.47;62.07
62548;BME280;48602;45.192;5.722;2022-12-20T07:46:25;99892.59;;;8.52;62.02
62548;BME280;48602;45.192;5.722;2022-12-20T07:48:51;99899.56;;;8.53;61.85
62548;BME280;48602;45.192;5.722;2022-12-20T07:51:29;99912.63;;;8.56;62.14
62548;BME280;48602;45.192;5.722;2022-12-20T07:54:05;99892.47;;;8.56;61.62
62548;BME280;48602;45.192;5.722;2022-12-20T07:56:35;99903.88;;;8.55;61.33
62548;BME280;48602;45.192;5.722;2022-12-20T07:59:04;99931.09;;;8.54;61.17
62548;BME280;48602;45.192;5.722;2022-12-20T08:01:30;99912.75;;;8.51;61.43
62548;BME280;48602;45.192;5.722;2022-12-20T08:04:04;99910.19;;;8.47;61.50
62548;BME280;48602;45.192;5.722;2022-12-20T08:06:32;99928.59;;;8.47;61.42
62548;BME280;48602;45.192;5.722;2022-12-20T08:09:02;99912.81;;;8.47;61.48
62548;BME280;48602;45.192;5.722;2022-12-20T08:11:29;99900.59;;;8.44;61.27
62548;BME280;48602;45.192;5.722;2022-12-20T08:13:56;99900.66;;;8.41;61.63
62548;BME280;48602;45.192;5.722;2022-12-20T08:16:22;99901.53;;;8.40;61.55
62548;BME280;48602;45.192;5.722;2022-12-20T08:18:47;99898.03;;;8.41;62.01
62548;BME280;48602;45.192;5.722;2022-12-20T08:21:13;99876.09;;;8.42;61.20
62548;BME280;48602;45.192;5.722;2022-12-20T08:23:39;99886.66;;;8.39;61.40
62548;BME280;48602;45.192;5.722;2022-12-20T08:26:04;99884.03;;;8.39;61.68
62548;BME280;48602;45.192;5.722;2022-12-20T08:28:30;99898.91;;;8.40;61.87
62548;BME280;48602;45.192;5.722;2022-12-20T08:31:00;99884.00;;;8.40;61.66
62548;BME280;48602;45.192;5.722;2022-12-20T08:33:26;99892.81;;;8.38;61.52
62548;BME280;48602;45.192;5.722;2022-12-20T08:35:58;99892.78;;;8.39;61.80
62548;BME280;48602;45.192;5.722;2022-12-20T08:38:28;99899.72;;;8.44;61.85
62548;BME280;48602;45.192;5.722;2022-12-20T08:40:55;99894.44;;;8.45;61.81
62548;BME280;48602;45.192;5.722;2022-12-20T08:43:21;99890.03;;;8.47;61.84
62548;BME280;48602;45.192;5.722;2022-12-20T08:45:53;99902.19;;;8.53;61.84
62548;BME280;48602;45.192;5.722;2022-12-20T08:48:20;99869.69;;;8.57;61.62
62548;BME280;48602;45.192;5.722;2022-12-20T08:50:46;99884.56;;;8.58;61.81
62548;BME280;48602;45.192;5.722;2022-12-20T08:53:11;99893.22;;;8.63;61.74
62548;BME280;48602;45.192;5.722;2022-12-20T08:55:37;99881.72;;;8.68;61.67
62548;BME280;48602;45.192;5.722;2022-12-20T08:58:02;99889.50;;;8.73;61.63
62548;BME280;48602;45.192;5.722;2022-12-20T09:00:28;99892.91;;;8.78;61.71
62548;BME280;48602;45.192;5.722;2022-12-20T09:02:53;99868.25;;;8.85;61.53
62548;BME280;48602;45.192;5.722;2022-12-20T09:05:19;99879.50;;;8.90;61.76
62548;BME280;48602;45.192;5.722;2022-12-20T09:07:45;99882.81;;;9.00;61.82
62548;BME280;48602;45.192;5.722;2022-12-20T09:10:11;99880.88;;;9.08;61.84
62548;BME280;48602;45.192;5.722;2022-12-20T09:12:37;99885.06;;;9.18;61.89
62548;BME280;48602;45.192;5.722;2022-12-20T09:15:04;99881.41;;;9.24;60.98
62548;BME280;48602;45.192;5.722;2022-12-20T09:17:32;99890.06;;;9.29;61.29
62548;BME280;48602;45.192;5.722;2022-12-20T09:19:58;99866.28;;;9.33;60.85
62548;BME280;48602;45.192;5.722;2022-12-20T09:22:23;99866.22;;;9.36;61.09
62548;BME280;48602;45.192;5.722;2022-12-20T09:24:48;99868.56;;;9.49;61.08
62548;BME280;48602;45.192;5.722;2022-12-20T09:27:14;99870.88;;;9.61;61.11
62548;BME280;48602;45.192;5.722;2022-12-20T09:29:39;99875.91;;;9.71;60.76
62548;BME280;48602;45.192;5.722;2022-12-20T09:32:05;99858.06;;;9.83;60.74
62548;BME280;48602;45.192;5.722;2022-12-20T09:34:30;99861.25;;;9.95;60.58
62548;BME280;48602;45.192;5.722;2022-12-20T09:36:56;99856.50;;;10.08;60.42
62548;BME280;48602;45.192;5.722;2022-12-20T09:39:21;99848.38;;;10.19;60.17
62548;BME280;48602;45.192;5.722;2022-12-20T09:41:47;99846.19;;;10.34;60.14
62548;BME280;48602;45.192;5.722;2022-12-20T09:44:18;99833.53;;;10.47;59.91
62548;BME280;48602;45.192;5.722;2022-12-20T09:46:47;99832.22;;;10.62;59.73
62548;BME280;48602;45.192;5.722;2022-12-20T09:49:16;99827.41;;;10.76;59.84
62548;BME280;48602;45.192;5.722;2022-12-20T09:55:03;99811.97;;;11.21;59.32
62548;BME280;48602;45.192;5.722;2022-12-20T10:00:19;99802.78;;;11.59;57.98
62548;BME280;48602;45.192;5.722;2022-12-20T10:02:45;99815.31;;;11.80;57.77
62548;BME280;48602;45.192;5.722;2022-12-20T10:05:14;99810.34;;;11.96;57.83
62548;BME280;48602;45.192;5.722;2022-12-20T10:11:48;99812.56;;;12.33;57.15
62548;BME280;48602;45.192;5.722;2022-12-20T10:13:59;99798.38;;;12.59;56.81
62548;BME280;48602;45.192;5.722;2022-12-20T10:16:41;99796.59;;;12.83;56.11
62548;BME280;48602;45.192;5.722;2022-12-20T10:22:09;99794.06;;;13.25;55.49
62548;BME280;48602;45.192;5.722;2022-12-20T10:24:40;99775.50;;;13.47;55.14
62548;BME280;48602;45.192;5.722;2022-12-20T10:27:15;99771.06;;;13.69;54.85
62548;BME280;48602;45.192;5.722;2022-12-20T10:29:42;99758.75;;;13.88;55.27
62548;BME280;48602;45.192;5.722;2022-12-20T10:32:14;99751.59;;;14.09;54.23
62548;BME280;48602;45.192;5.722;2022-12-20T10:34:51;99767.44;;;14.31;54.09
62548;BME280;48602;45.192;5.722;2022-12-20T10:37:20;99763.06;;;14.50;53.55
62548;BME280;48602;45.192;5.722;2022-12-20T10:39:48;99767.59;;;14.67;53.86
62548;BME280;48602;45.192;5.722;2022-12-20T10:44:51;99746.53;;;15.00;52.56
62548;BME280;48602;45.192;5.722;2022-12-20T10:47:38;99735.03;;;15.18;52.02
62548;BME280;48602;45.192;5.722;2022-12-20T10:50:14;99727.09;;;15.35;51.68
62548;BME280;48602;45.192;5.722;2022-12-20T10:52:40;99729.91;;;15.50;51.71
62548;BME280;48602;45.192;5.722;2022-12-20T10:58:28;99730.09;;;15.81;50.91
62548;BME280;48602;45.192;5.722;2022-12-20T11:03:48;99727.97;;;16.05;49.80
62548;BME280;48602;45.192;5.722;2022-12-20T11:06:15;99713.22;;;16.15;49.66
62548;BME280;48602;45.192;5.722;2022-12-20T11:08:41;99704.06;;;16.21;49.33
62548;BME280;48602;45.192;5.722;2022-12-20T11:13:38;99701.50;;;16.35;48.84
62548;BME280;48602;45.192;5.722;2022-12-20T11:16:04;99703.00;;;16.40;48.95
62548;BME280;48602;45.192;5.722;2022-12-20T11:21:38;99694.31;;;16.53;47.65
62548;BME280;48602;45.192;5.722;2022-12-20T11:26:59;99680.50;;;16.62;48.25
62548;BME280;48602;45.192;5.722;2022-12-20T11:38:06;99658.09;;;16.82;46.23
62548;BME280;48602;45.192;5.722;2022-12-20T11:40:47;99644.53;;;16.86;47.30
62548;BME280;48602;45.192;5.722;2022-12-20T11:56:47;99610.59;;;16.90;46.97
62548;BME280;48602;45.192;5.722;2022-12-20T11:59:41;99620.41;;;16.89;46.30
62548;BME280;48602;45.192;5.722;2022-12-20T12:02:18;99623.91;;;16.90;45.75
62548;BME280;48602;45.192;5.722;2022-12-20T12:04:52;99614.97;;;16.91;45.29
62548;BME280;48602;45.192;5.722;2022-12-20T12:07:22;99605.19;;;16.91;45.06
62548;BME280;48602;45.192;5.722;2022-12-20T12:10:03;99608.72;;;16.92;45.37
62548;BME280;48602;45.192;5.722;2022-12-20T12:12:39;99607.84;;;16.91;45.39
62548;BME280;48602;45.192;5.722;2022-12-20T12:18:16;99581.38;;;16.88;45.15
62548;BME280;48602;45.192;5.722;2022-12-20T12:26:28;99573.56;;;16.85;45.93
62548;BME280;48602;45.192;5.722;2022-12-20T12:28:59;99579.00;;;16.84;45.18
62548;BME280;48602;45.192;5.722;2022-12-20T12:47:54;99563.47;;;17.06;44.57
62548;BME280;48602;45.192;5.722;2022-12-20T12:50:27;99551.78;;;17.08;45.27
62548;BME280;48602;45.192;5.722;2022-12-20T12:52:56;99551.56;;;17.12;44.39
62548;BME280;48602;45.192;5.722;2022-12-20T12:58:33;99546.56;;;17.21;44.29
62548;BME280;48602;45.192;5.722;2022-12-20T13:01:07;99530.31;;;17.26;44.19
62548;BME280;48602;45.192;5.722;2022-12-20T13:03:45;99523.91;;;17.28;44.06
62548;BME280;48602;45.192;5.722;2022-12-20T13:11:39;99521.91;;;17.32;43.93
62548;BME280;48602;45.192;5.722;2022-12-20T13:20:00;99524.84;;;17.27;44.10
62548;BME280;48602;45.192;5.722;2022-12-20T13:22:26;99532.84;;;17.27;43.90
62548;BME280;48602;45.192;5.722;2022-12-20T13:24:59;99525.63;;;17.29;43.06
62548;BME280;48602;45.192;5.722;2022-12-20T13:38:02;99531.13;;;17.26;42.80
62548;BME280;48602;45.192;5.722;2022-12-20T13:40:54;99537.31;;;17.27;43.23
62548;BME280;48602;45.192;5.722;2022-12-20T13:45:50;99526.09;;;17.22;43.40
62548;BME280;48602;45.192;5.722;2022-12-20T13:48:30;99517.44;;;17.18;42.92
62548;BME280;48602;45.192;5.722;2022-12-20T13:50:58;99506.88;;;17.17;43.80
62548;BME280;48602;45.192;5.722;2022-12-20T13:53:25;99506.09;;;17.15;43.50
62548;BME280;48602;45.192;5.722;2022-12-20T13:55:54;99501.63;;;17.15;43.37
62548;BME280;48602;45.192;5.722;2022-12-20T13:58:21;99503.34;;;17.16;43.39
62548;BME280;48602;45.192;5.722;2022-12-20T14:00:50;99513.91;;;17.18;43.12
62548;BME280;48602;45.192;5.722;2022-12-20T14:03:24;99521.72;;;17.21;42.59
62548;BME280;48602;45.192;5.722;2022-12-20T14:05:55;99507.44;;;17.22;43.26
62548;BME280;48602;45.192;5.722;2022-12-20T14:08:25;99509.16;;;17.23;42.98
62548;BME280;48602;45.192;5.722;2022-12-20T14:10:52;99495.84;;;17.23;42.08
62548;BME280;48602;45.192;5.722;2022-12-20T14:13:23;99496.88;;;17.20;42.73
62548;BME280;48602;45.192;5.722;2022-12-20T14:15:49;99491.56;;;17.20;42.53
62548;BME280;48602;45.192;5.722;2022-12-20T14:18:20;99484.50;;;17.19;42.85
62548;BME280;48602;45.192;5.722;2022-12-20T14:20:58;99487.25;;;17.18;42.65
62548;BME280;48602;45.192;5.722;2022-12-20T14:23:36;99490.88;;;17.17;43.43
62548;BME280;48602;45.192;5.722;2022-12-20T14:26:04;99484.88;;;17.13;42.98
62548;BME280;48602;45.192;5.722;2022-12-20T14:31:02;99485.44;;;17.04;43.22
62548;BME280;48602;45.192;5.722;2022-12-20T14:35:53;99481.16;;;17.01;43.05
62548;BME280;48602;45.192;5.722;2022-12-20T14:38:24;99482.88;;;17.02;43.17
62548;BME280;48602;45.192;5.722;2022-12-20T14:40:53;99472.22;;;17.02;42.98
62548;BME280;48602;45.192;5.722;2022-12-20T14:43:33;99475.06;;;16.99;42.88
62548;BME280;48602;45.192;5.722;2022-12-20T14:46:17;99472.56;;;16.96;42.14
62548;BME280;48602;45.192;5.722;2022-12-20T14:48:43;99467.34;;;16.95;42.88
62548;BME280;48602;45.192;5.722;2022-12-20T14:51:09;99458.78;;;16.90;42.82
62548;BME280;48602;45.192;5.722;2022-12-20T14:53:36;99453.66;;;16.87;43.23
62548;BME280;48602;45.192;5.722;2022-12-20T14:56:03;99447.56;;;16.85;42.80
62548;BME280;48602;45.192;5.722;2022-12-20T14:58:33;99444.88;;;16.85;42.78
62548;BME280;48602;45.192;5.722;2022-12-20T15:01:12;99444.13;;;16.83;42.77
62548;BME280;48602;45.192;5.722;2022-12-20T15:03:52;99449.53;;;16.81;43.10
62548;BME280;48602;45.192;5.722;2022-12-20T15:08:57;99441.72;;;16.78;42.49
62548;BME280;48602;45.192;5.722;2022-12-20T15:11:23;99453.31;;;16.77;42.65
62548;BME280;48602;45.192;5.722;2022-12-20T15:13:52;99456.84;;;16.78;42.57
62548;BME280;48602;45.192;5.722;2022-12-20T15:16:26;99443.75;;;16.74;42.55